Time;durP1;ratioP1;P1;durP2;ratioP2;P2;SDS_P1;SDS_P2;PMS_P1;PMS_P2;Temp;Humidity;BMP_temperature;BMP_pressure;BME280_temperature;BME280_humidity;BME280_pressure;Samples;Min_cycle;Max_cycle;Signal;HPM_P1;HPM_P2
2021/10/09 00:00:55;;;;;;;28.10;24.97;;;7.90;99.90;;;;;;4842008;29;20293;-76
2021/10/09 00:03:23;;;;;;;27.37;24.47;;;7.80;99.90;;;;;;4840319;29;20273;-76
2021/10/09 00:05:50;;;;;;;27.97;25.00;;;7.80;99.90;;;;;;4834366;29;20264;-76
2021/10/09 00:08:18;;;;;;;29.37;26.20;;;7.80;99.90;;;;;;4843333;29;20335;-76
2021/10/09 00:10:46;;;;;;;29.20;26.40;;;7.70;99.90;;;;;;4840617;29;20210;-76
2021/10/09 00:13:13;;;;;;;27.37;24.53;;;7.70;99.90;;;;;;4841993;29;20215;-76
2021/10/09 00:15:41;;;;;;;27.17;24.40;;;7.60;99.90;;;;;;4843446;29;20210;-76
2021/10/09 00:18:07;;;;;;;27.90;25.27;;;7.60;99.90;;;;;;4837834;29;20210;-76
2021/10/09 00:20:36;;;;;;;29.20;26.07;;;7.50;99.90;;;;;;4839441;29;20200;-76
2021/10/09 00:23:03;;;;;;;28.87;25.83;;;7.50;99.90;;;;;;4824025;29;20279;-76
2021/10/09 00:25:30;;;;;;;29.40;26.23;;;7.50;99.90;;;;;;4839276;29;20207;-75
2021/10/09 00:27:56;;;;;;;30.43;27.23;;;7.50;99.90;;;;;;4839219;29;20219;-76
2021/10/09 00:30:23;;;;;;;28.67;25.77;;;7.50;99.90;;;;;;4833133;29;20203;-76
2021/10/09 00:32:50;;;;;;;28.10;25.23;;;7.50;99.90;;;;;;4834479;29;20230;-75
2021/10/09 00:35:17;;;;;;;29.93;26.73;;;7.50;99.90;;;;;;4838747;29;20239;-76
2021/10/09 00:37:45;;;;;;;29.53;26.37;;;7.40;99.90;;;;;;4839274;29;20218;-76
2021/10/09 00:40:12;;;;;;;28.43;25.53;;;7.40;99.90;;;;;;4841818;29;20691;-76
2021/10/09 00:42:39;;;;;;;28.93;26.03;;;7.30;99.90;;;;;;4841028;29;20208;-75
2021/10/09 00:45:07;;;;;;;27.63;24.77;;;7.30;99.90;;;;;;4840520;29;20758;-76
2021/10/09 00:47:34;;;;;;;28.47;25.60;;;7.30;99.90;;;;;;4843541;29;20227;-76
2021/10/09 00:50:01;;;;;;;29.20;26.20;;;7.30;99.90;;;;;;4837736;29;20260;-76
2021/10/09 00:52:28;;;;;;;28.53;25.53;;;7.30;99.90;;;;;;4841255;29;20195;-76
2021/10/09 00:54:58;;;;;;;27.73;25.10;;;7.20;99.90;;;;;;4854238;29;20212;-76
2021/10/09 00:57:27;;;;;;;27.80;24.97;;;7.20;99.90;;;;;;4841523;29;20223;-76
2021/10/09 00:59:58;;;;;;;28.10;25.10;;;7.20;99.90;;;;;;4839689;29;20219;-76
2021/10/09 01:02:26;;;;;;;27.27;24.53;;;7.20;99.90;;;;;;4840718;29;20199;-75
2021/10/09 01:04:53;;;;;;;27.53;24.83;;;7.20;99.90;;;;;;4840248;29;20210;-76
2021/10/09 01:07:20;;;;;;;27.60;24.83;;;7.20;99.90;;;;;;4841506;29;20235;-76
2021/10/09 01:09:47;;;;;;;27.13;24.43;;;7.20;99.90;;;;;;4840274;29;20625;-76
2021/10/09 01:12:16;;;;;;;27.77;24.97;;;7.20;99.90;;;;;;4841206;29;20208;-75
2021/10/09 01:14:44;;;;;;;28.30;25.53;;;7.20;99.90;;;;;;4841010;29;20700;-76
2021/10/09 01:17:12;;;;;;;26.93;24.33;;;7.20;99.90;;;;;;4837608;29;20233;-76
2021/10/09 01:19:39;;;;;;;29.00;26.03;;;7.10;99.90;;;;;;4837744;29;20610;-76
2021/10/09 01:22:08;;;;;;;27.37;24.43;;;7.10;99.90;;;;;;4840016;29;20278;-76
2021/10/09 01:24:36;;;;;;;26.97;24.43;;;7.10;99.90;;;;;;4839807;29;20556;-75
2021/10/09 01:27:04;;;;;;;27.37;24.57;;;7.20;99.90;;;;;;4853441;29;20217;-76
2021/10/09 01:29:31;;;;;;;28.47;25.77;;;7.20;99.90;;;;;;4856139;29;20294;-76
2021/10/09 01:31:58;;;;;;;27.40;24.73;;;7.20;99.90;;;;;;4840733;29;20213;-75
2021/10/09 01:34:28;;;;;;;28.10;25.17;;;7.20;99.90;;;;;;4840658;29;20337;-76
2021/10/09 01:37:01;;;;;;;27.67;25.00;;;7.10;99.90;;;;;;4840862;29;20226;-76
2021/10/09 01:39:33;;;;;;;29.47;26.57;;;7.10;99.90;;;;;;4837141;29;20363;-76
2021/10/09 01:41:59;;;;;;;28.50;25.80;;;7.20;99.90;;;;;;4834321;29;20205;-75
2021/10/09 01:44:30;;;;;;;28.67;25.50;;;7.10;99.90;;;;;;4840279;29;20199;-76
2021/10/09 01:46:58;;;;;;;27.37;24.67;;;7.10;99.90;;;;;;4854857;29;20271;-75
2021/10/09 01:49:28;;;;;;;27.33;24.53;;;7.10;99.90;;;;;;4847358;29;20291;-76
2021/10/09 01:51:59;;;;;;;26.77;24.27;;;7.10;99.90;;;;;;4840668;29;20207;-76
2021/10/09 01:54:26;;;;;;;27.73;24.70;;;7.00;99.90;;;;;;4825434;29;20212;-76
2021/10/09 01:56:55;;;;;;;29.50;26.60;;;7.00;99.90;;;;;;4843632;29;20227;-76
2021/10/09 01:59:22;;;;;;;27.87;25.03;;;6.90;99.90;;;;;;4855469;29;20321;-78
2021/10/09 02:01:55;;;;;;;27.20;24.40;;;6.90;99.90;;;;;;4848179;29;20583;-76
2021/10/09 02:04:25;;;;;;;30.83;26.40;;;6.90;99.90;;;;;;4847786;29;20305;-76
2021/10/09 02:06:52;;;;;;;27.63;25.10;;;6.90;99.90;;;;;;4848288;29;20731;-76
2021/10/09 02:09:18;;;;;;;27.90;25.13;;;6.80;99.90;;;;;;4836302;29;20200;-75
2021/10/09 02:11:49;;;;;;;27.37;24.83;;;6.80;99.90;;;;;;4837520;29;20203;-76
2021/10/09 02:14:23;;;;;;;27.13;24.53;;;6.70;99.90;;;;;;4838320;29;20207;-75
2021/10/09 02:17:10;;;;;;;27.60;24.80;;;6.80;99.90;;;;;;4832715;29;20231;-76
2021/10/09 02:25:26;;;;;;;28.77;25.80;;;6.80;99.90;;;;;;4855508;29;20692;-76
2021/10/09 02:27:54;;;;;;;28.97;25.87;;;6.80;99.90;;;;;;4832813;29;20235;-76
2021/10/09 02:30:22;;;;;;;28.47;25.60;;;6.80;99.90;;;;;;4836527;29;20198;-75
2021/10/09 02:32:51;;;;;;;28.63;25.87;;;6.80;99.90;;;;;;4842659;29;20297;-75
2021/10/09 02:35:18;;;;;;;28.43;25.43;;;6.80;99.90;;;;;;4852976;29;20862;-76
2021/10/09 02:37:45;;;;;;;28.27;25.37;;;6.80;99.90;;;;;;4838126;29;20239;-76
2021/10/09 02:40:13;;;;;;;28.23;25.53;;;6.80;99.90;;;;;;4838546;29;20248;-76
2021/10/09 02:42:41;;;;;;;29.17;26.17;;;6.70;99.90;;;;;;4839760;29;20284;-76
2021/10/09 02:45:09;;;;;;;29.07;26.13;;;6.80;99.90;;;;;;4854657;29;20294;-76
2021/10/09 02:47:37;;;;;;;29.07;25.97;;;6.90;99.90;;;;;;4839654;29;20714;-76
2021/10/09 02:50:07;;;;;;;28.83;25.83;;;6.80;99.90;;;;;;4839525;29;20259;-76
2021/10/09 02:52:36;;;;;;;27.97;25.17;;;6.80;99.90;;;;;;4839399;29;20211;-76
2021/10/09 02:55:03;;;;;;;27.53;24.87;;;6.70;99.90;;;;;;4836925;29;20260;-76
2021/10/09 02:57:30;;;;;;;29.97;26.90;;;6.70;99.90;;;;;;4827381;29;20238;-75
2021/10/09 02:59:58;;;;;;;28.73;25.47;;;6.70;99.90;;;;;;4837828;29;20223;-77
2021/10/09 03:02:25;;;;;;;27.87;24.87;;;6.70;99.90;;;;;;4839134;29;20211;-76
2021/10/09 03:04:54;;;;;;;29.03;26.20;;;6.70;99.90;;;;;;4845476;29;20653;-76
2021/10/09 03:07:22;;;;;;;27.43;24.70;;;6.60;99.90;;;;;;4830921;29;20238;-76
2021/10/09 03:09:50;;;;;;;26.07;23.60;;;6.60;99.90;;;;;;4834469;29;20211;-80
2021/10/09 03:12:16;;;;;;;28.13;25.10;;;6.50;99.90;;;;;;4849625;29;20610;-78
2021/10/09 03:14:44;;;;;;;27.60;24.90;;;6.50;99.90;;;;;;4843890;29;20202;-78
2021/10/09 03:17:10;;;;;;;26.87;24.23;;;6.50;99.90;;;;;;4839728;29;20233;-77
2021/10/09 03:19:37;;;;;;;26.47;23.77;;;6.50;99.90;;;;;;4838955;29;20222;-78
2021/10/09 03:22:08;;;;;;;28.73;25.87;;;6.50;99.90;;;;;;4852021;29;20199;-78
2021/10/09 03:24:37;;;;;;;27.73;24.97;;;6.50;99.90;;;;;;4839631;29;20218;-79
2021/10/09 03:27:04;;;;;;;28.47;25.67;;;6.40;99.90;;;;;;4855695;29;20230;-76
2021/10/09 03:29:31;;;;;;;27.87;25.17;;;6.40;99.90;;;;;;4851636;29;20198;-77
2021/10/09 03:31:58;;;;;;;27.87;24.97;;;6.40;99.90;;;;;;4861190;29;20210;-78
2021/10/09 03:34:32;;;;;;;29.20;25.87;;;6.40;99.90;;;;;;4849548;29;20239;-77
2021/10/09 03:36:59;;;;;;;28.17;25.20;;;6.40;99.90;;;;;;4864256;29;20254;-78
2021/10/09 03:39:34;;;;;;;28.27;25.43;;;6.40;99.90;;;;;;4851938;29;20245;-77
2021/10/09 03:42:05;;;;;;;28.33;25.27;;;6.30;99.90;;;;;;4850625;29;20207;-75
2021/10/09 03:44:36;;;;;;;28.70;25.80;;;6.40;99.90;;;;;;4854041;29;20706;-76
2021/10/09 03:47:14;;;;;;;28.90;25.17;;;6.30;99.90;;;;;;4849969;29;20223;-76
2021/10/09 03:49:47;;;;;;;28.73;25.77;;;6.40;99.90;;;;;;4852862;29;20203;-75
2021/10/09 03:55:01;;;;;;;26.37;23.77;;;6.30;99.90;;;;;;4854191;29;20206;-75
2021/10/09 03:57:29;;;;;;;27.77;24.77;;;6.30;99.90;;;;;;4840322;29;20795;-75
2021/10/09 03:59:56;;;;;;;26.43;23.57;;;6.30;99.90;;;;;;4842019;29;20271;-76
2021/10/09 04:02:22;;;;;;;26.47;23.73;;;6.30;99.90;;;;;;4842297;29;20214;-75
2021/10/09 04:04:49;;;;;;;26.43;23.87;;;6.30;99.90;;;;;;4842534;29;20207;-75
2021/10/09 04:07:16;;;;;;;24.67;22.23;;;6.30;99.90;;;;;;4843380;29;20246;-76
2021/10/09 04:09:43;;;;;;;25.03;22.63;;;6.20;99.90;;;;;;4841674;29;20231;-76
2021/10/09 04:12:12;;;;;;;26.63;23.90;;;6.20;99.90;;;;;;4842311;29;20684;-75
2021/10/09 04:14:39;;;;;;;25.57;22.93;;;6.20;99.90;;;;;;4843257;29;20281;-76
2021/10/09 04:17:07;;;;;;;26.83;23.97;;;6.20;99.90;;;;;;4840797;29;20219;-76
2021/10/09 04:19:34;;;;;;;27.10;24.43;;;6.20;99.90;;;;;;4841655;29;20226;-76
2021/10/09 04:22:01;;;;;;;24.20;21.90;;;6.20;99.90;;;;;;4842274;29;20218;-75
2021/10/09 04:24:32;;;;;;;28.33;25.30;;;6.20;99.90;;;;;;4839641;29;20656;-75
2021/10/09 04:27:00;;;;;;;26.33;23.93;;;6.30;99.90;;;;;;4841769;29;20222;-75
2021/10/09 04:29:29;;;;;;;26.90;24.30;;;6.20;99.90;;;;;;4841949;29;20234;-76
2021/10/09 04:31:56;;;;;;;27.00;24.43;;;6.20;99.90;;;;;;4841991;29;20198;-76
2021/10/09 04:34:23;;;;;;;28.53;24.87;;;6.20;99.90;;;;;;4842219;29;20208;-76
2021/10/09 04:36:51;;;;;;;26.37;23.93;;;6.20;99.90;;;;;;4841624;29;20223;-75
2021/10/09 04:39:20;;;;;;;27.43;24.27;;;6.20;99.90;;;;;;4845929;29;20317;-76
2021/10/09 04:41:49;;;;;;;27.20;24.30;;;6.10;99.90;;;;;;4842814;29;20199;-76
2021/10/09 04:44:16;;;;;;;28.23;25.33;;;6.10;99.90;;;;;;4841803;29;20207;-76
2021/10/09 04:46:47;;;;;;;27.50;24.70;;;6.20;99.90;;;;;;4841504;29;20223;-76
2021/10/09 04:49:16;;;;;;;27.17;24.53;;;6.30;99.90;;;;;;4841213;29;20199;-76
2021/10/09 04:51:43;;;;;;;26.87;24.17;;;6.20;99.90;;;;;;4841417;29;20637;-75
2021/10/09 04:54:10;;;;;;;25.33;22.63;;;6.30;99.90;;;;;;4841713;29;20213;-75
2021/10/09 04:56:37;;;;;;;26.17;23.53;;;6.20;99.90;;;;;;4841436;29;20218;-76
2021/10/09 04:59:06;;;;;;;27.13;24.37;;;6.10;99.90;;;;;;4840977;29;20641;-76
2021/10/09 05:01:33;;;;;;;27.87;25.23;;;6.20;99.90;;;;;;4841100;29;20199;-76
2021/10/09 05:04:02;;;;;;;26.60;23.90;;;6.20;99.90;;;;;;4841041;29;20703;-76
2021/10/09 05:06:31;;;;;;;26.47;23.80;;;6.10;99.90;;;;;;4854094;29;20607;-76
2021/10/09 05:08:58;;;;;;;26.77;24.30;;;6.10;99.90;;;;;;4840629;29;20206;-76
2021/10/09 05:11:26;;;;;;;26.80;24.07;;;6.10;99.90;;;;;;4846514;29;20294;-76
2021/10/09 05:13:53;;;;;;;26.17;23.57;;;6.10;99.90;;;;;;4841220;29;20669;-75
2021/10/09 05:16:21;;;;;;;26.93;24.30;;;6.10;99.90;;;;;;4840896;29;20312;-75
2021/10/09 05:18:50;;;;;;;26.73;23.90;;;6.00;99.90;;;;;;4839750;29;20636;-76
2021/10/09 05:21:19;;;;;;;25.13;22.63;;;6.10;99.90;;;;;;4856283;29;20715;-77
2021/10/09 05:23:46;;;;;;;26.33;23.70;;;6.00;99.90;;;;;;4854958;29;20203;-76
2021/10/09 05:26:13;;;;;;;26.10;23.53;;;6.00;99.90;;;;;;4856389;29;20309;-77
2021/10/09 05:28:43;;;;;;;25.97;23.57;;;6.00;99.90;;;;;;4840682;29;20198;-76
2021/10/09 05:31:21;;;;;;;26.53;23.97;;;6.00;99.90;;;;;;4857105;29;20206;-76
2021/10/09 05:33:49;;;;;;;25.70;23.30;;;6.00;99.90;;;;;;4853065;29;20218;-77
2021/10/09 05:36:16;;;;;;;24.77;22.40;;;6.00;99.90;;;;;;4856344;29;20739;-75
2021/10/09 05:38:45;;;;;;;24.40;21.80;;;6.00;99.90;;;;;;4840278;29;20203;-76
2021/10/09 05:41:13;;;;;;;25.33;22.83;;;6.00;99.90;;;;;;4840355;29;20302;-76
2021/10/09 05:43:46;;;;;;;26.30;23.60;;;6.00;99.90;;;;;;4840451;29;20203;-76
2021/10/09 05:46:14;;;;;;;25.63;22.90;;;6.00;99.90;;;;;;4840378;29;20230;-76
2021/10/09 05:48:42;;;;;;;25.87;23.27;;;6.10;99.90;;;;;;4840265;29;20274;-76
2021/10/09 05:51:14;;;;;;;25.30;22.70;;;6.00;99.90;;;;;;4840470;29;20199;-76
2021/10/09 05:53:49;;;;;;;25.00;22.60;;;6.10;99.90;;;;;;4854812;29;20211;-76
2021/10/09 05:56:27;;;;;;;26.37;23.57;;;6.10;99.90;;;;;;4840160;29;20305;-76
2021/10/09 05:59:06;;;;;;;23.73;21.33;;;6.00;99.90;;;;;;4839927;29;20214;-77
2021/10/09 06:32:29;;;;;;;28.53;25.57;;;6.90;99.90;;;;;;4848914;29;20573;-77
2021/10/09 06:43:47;;;;;;;22.43;16.10;;;7.40;99.90;;;;;;4841825;29;20694;-76
2021/10/09 06:49:29;;;;;;;19.03;15.73;;;7.80;99.90;;;;;;4832659;29;20219;-76
2021/10/09 07:00:13;;;;;;;22.33;20.03;;;9.00;99.90;;;;;;4870064;29;20281;-77
2021/10/09 07:02:43;;;;;;;22.60;15.63;;;9.40;99.90;;;;;;4840602;29;20248;-77
2021/10/09 07:05:13;;;;;;;18.67;13.27;;;9.70;99.90;;;;;;4845657;29;20290;-77
2021/10/09 07:08:09;;;;;;;17.40;13.73;;;9.90;99.90;;;;;;4840501;29;20241;-77
2021/10/09 07:10:46;;;;;;;17.10;14.43;;;10.00;99.90;;;;;;4854328;29;20642;-78
2021/10/09 07:13:15;;;;;;;18.23;14.57;;;10.00;99.90;;;;;;4839075;29;20688;-80
2021/10/09 07:15:42;;;;;;;22.80;20.90;;;10.10;99.90;;;;;;4853479;29;20728;-78
2021/10/09 07:18:12;;;;;;;21.43;19.30;;;10.30;99.90;;;;;;4851809;29;20199;-77
2021/10/09 07:20:40;;;;;;;28.10;22.93;;;10.50;99.90;;;;;;4853110;29;20229;-77
2021/10/09 07:23:11;;;;;;;22.00;19.60;;;10.90;99.90;;;;;;4838890;29;20202;-77
2021/10/09 07:25:39;;;;;;;20.90;18.80;;;11.20;99.90;;;;;;4838529;29;20239;-78
2021/10/09 07:28:06;;;;;;;17.97;15.17;;;11.70;99.90;;;;;;4845466;29;20282;-77
2021/10/09 07:30:33;;;;;;;21.53;17.33;;;12.10;99.90;;;;;;4840585;29;20210;-78
2021/10/09 07:33:00;;;;;;;19.07;13.57;;;12.40;99.90;;;;;;4851451;29;20264;-77
2021/10/09 07:35:28;;;;;;;19.47;17.40;;;12.70;99.90;;;;;;4845223;29;20262;-77
2021/10/09 07:37:55;;;;;;;20.70;18.60;;;13.10;99.90;;;;;;4845333;29;20704;-77
2021/10/09 07:40:22;;;;;;;22.97;20.70;;;13.40;99.90;;;;;;4845427;29;20226;-78
2021/10/09 07:42:50;;;;;;;20.57;18.63;;;13.60;99.90;;;;;;4844487;29;20267;-78
2021/10/09 07:45:17;;;;;;;21.87;19.67;;;14.00;99.90;;;;;;4845955;29;20203;-77
2021/10/09 07:47:43;;;;;;;21.87;19.60;;;14.30;99.90;;;;;;4845837;29;20218;-77
2021/10/09 07:50:11;;;;;;;14.03;12.57;;;14.30;99.90;;;;;;4844258;29;20202;-79
2021/10/09 07:52:41;;;;;;;20.47;18.57;;;14.50;99.90;;;;;;4858021;29;20202;-80
2021/10/09 07:55:09;;;;;;;21.87;19.87;;;14.70;99.90;;;;;;4857960;29;20230;-78
2021/10/09 07:57:36;;;;;;;22.17;19.87;;;14.90;99.90;;;;;;4844903;29;20223;-78
2021/10/09 08:00:04;;;;;;;21.37;19.33;;;15.00;99.90;;;;;;4843255;29;20238;-77
2021/10/09 08:02:46;;;;;;;22.30;19.97;;;15.10;99.90;;;;;;4844333;29;20245;-77
2021/10/09 08:05:13;;;;;;;21.37;17.23;;;15.30;99.90;;;;;;4846425;29;20619;-77
2021/10/09 08:07:41;;;;;;;21.00;16.20;;;15.40;99.90;;;;;;4845064;29;20237;-77
2021/10/09 08:10:09;;;;;;;23.53;19.10;;;15.40;99.90;;;;;;4845666;29;20242;-78
2021/10/09 08:12:36;;;;;;;18.20;14.40;;;15.20;99.90;;;;;;4845963;29;20203;-77
2021/10/09 08:15:04;;;;;;;14.10;11.50;;;15.40;99.90;;;;;;4844966;29;20213;-77
2021/10/09 08:17:31;;;;;;;20.00;14.03;;;15.50;99.90;;;;;;4845601;29;20277;-77
2021/10/09 08:19:57;;;;;;;14.50;12.17;;;15.60;99.90;;;;;;4845787;29;20261;-77
2021/10/09 08:22:26;;;;;;;18.53;13.00;;;15.80;99.90;;;;;;4852341;29;20742;-77
2021/10/09 08:25:00;;;;;;;19.10;17.10;;;15.60;99.90;;;;;;4853982;29;20210;-77
2021/10/09 08:36:00;;;;;;;21.33;19.33;;;16.00;99.90;;;;;;4847555;29;20210;-78
2021/10/09 08:38:48;;;;;;;17.43;14.20;;;16.20;99.90;;;;;;4844377;29;20236;-78
2021/10/09 08:41:17;;;;;;;17.33;12.77;;;16.50;99.90;;;;;;4844149;29;20367;-77
2021/10/09 08:43:44;;;;;;;12.80;11.20;;;16.50;99.90;;;;;;4842535;29;20569;-78
2021/10/09 08:46:11;;;;;;;22.10;19.87;;;16.80;99.90;;;;;;4842760;29;20644;-78
2021/10/09 08:48:42;;;;;;;22.00;20.00;;;16.80;99.90;;;;;;4842627;29;20237;-78
2021/10/09 08:51:09;;;;;;;20.47;18.03;;;16.60;99.90;;;;;;4840968;29;20206;-78
2021/10/09 08:53:37;;;;;;;20.57;18.43;;;16.60;99.90;;;;;;4855238;29;20591;-79
2021/10/09 08:56:04;;;;;;;19.70;17.80;;;16.50;99.90;;;;;;4845795;29;20234;-79
2021/10/09 08:58:36;;;;;;;25.47;18.27;;;16.60;99.90;;;;;;4843149;29;20205;-81
2021/10/09 09:01:09;;;;;;;20.63;18.67;;;16.70;99.90;;;;;;4841411;29;20247;-80
2021/10/09 09:04:07;;;;;;;15.60;12.67;;;16.90;99.90;;;;;;4846764;29;20276;-84
2021/10/09 09:09:26;;;;;;;20.07;17.93;;;16.90;99.90;;;;;;4838994;29;20207;-80
2021/10/09 09:26:02;;;;;;;21.97;19.97;;;16.40;99.90;;;;;;4856495;29;20209;-80
2021/10/09 09:31:31;;;;;;;23.40;21.20;;;16.50;99.90;;;;;;4837759;29;20204;-80
2021/10/09 09:34:36;;;;;;;23.27;20.97;;;16.50;99.90;;;;;;4854463;29;20207;-80
2021/10/09 09:37:12;;;;;;;22.37;20.17;;;16.60;99.90;;;;;;4852339;29;20245;-80
2021/10/09 09:39:41;;;;;;;21.47;19.40;;;16.30;99.90;;;;;;4853237;29;20705;-80
2021/10/09 09:42:09;;;;;;;20.77;18.77;;;16.20;99.90;;;;;;4857894;29;20225;-80
2021/10/09 09:44:38;;;;;;;19.93;18.03;;;16.00;99.90;;;;;;4863269;29;20200;-79
2021/10/09 09:47:09;;;;;;;20.67;18.33;;;16.00;99.90;;;;;;4841190;29;20274;-80
2021/10/09 09:49:36;;;;;;;20.60;18.63;;;15.90;99.90;;;;;;4853866;29;20195;-81
2021/10/09 09:52:03;;;;;;;17.53;15.83;;;16.10;99.90;;;;;;4862502;29;20198;-79
2021/10/09 09:54:31;;;;;;;20.60;18.53;;;16.10;99.90;;;;;;4842817;29;20269;-80
2021/10/09 09:57:00;;;;;;;18.37;16.43;;;16.00;99.90;;;;;;4844850;29;20256;-80
2021/10/09 09:59:31;;;;;;;20.77;17.93;;;15.70;99.90;;;;;;4852859;29;20213;-80
2021/10/09 10:02:02;;;;;;;22.37;18.87;;;15.50;99.90;;;;;;4867987;29;20583;-79
2021/10/09 10:04:40;;;;;;;20.27;18.27;;;15.40;99.90;;;;;;4857284;29;20205;-80
2021/10/09 10:07:07;;;;;;;21.67;17.37;;;15.20;99.90;;;;;;4866318;29;20230;-80
2021/10/09 10:09:34;;;;;;;20.47;17.73;;;15.10;99.90;;;;;;4857326;29;20606;-80
2021/10/09 10:12:03;;;;;;;19.43;17.63;;;15.00;99.90;;;;;;4858078;29;20194;-79
2021/10/09 10:14:31;;;;;;;19.00;17.30;;;14.90;99.90;;;;;;4856098;29;20211;-80
2021/10/09 10:16:59;;;;;;;19.77;17.53;;;15.00;99.90;;;;;;4855939;29;20237;-80
2021/10/09 10:20:03;;;;;;;20.10;18.03;;;14.80;99.90;;;;;;4852866;29;20211;-80
2021/10/09 10:23:02;;;;;;;18.40;16.80;;;14.80;99.90;;;;;;4855619;29;20242;-78
2021/10/09 10:25:39;;;;;;;20.73;17.40;;;15.00;99.90;;;;;;4822166;29;20217;-81
2021/10/09 10:28:13;;;;;;;18.83;16.67;;;15.00;99.90;;;;;;4853700;29;20236;-78
2021/10/09 10:30:41;;;;;;;18.93;17.03;;;15.00;99.90;;;;;;4849560;29;20207;-80
2021/10/09 10:33:47;;;;;;;18.27;16.47;;;15.00;99.90;;;;;;4857774;29;20297;-80
2021/10/09 10:36:38;;;;;;;17.90;16.23;;;15.10;99.90;;;;;;4856124;29;20230;-80
2021/10/09 10:39:07;;;;;;;17.17;15.47;;;15.00;99.90;;;;;;4854983;29;20230;-80
2021/10/09 10:41:53;;;;;;;17.80;16.10;;;15.00;99.90;;;;;;4858867;29;20603;-80
2021/10/09 10:45:00;;;;;;;18.23;16.50;;;15.10;99.90;;;;;;4839317;29;20223;-81
2021/10/09 10:47:56;;;;;;;17.83;16.23;;;15.10;99.90;;;;;;4839515;29;20220;-80
2021/10/09 10:50:59;;;;;;;18.63;16.73;;;15.20;99.90;;;;;;4833641;29;20252;-80
2021/10/09 10:54:32;;;;;;;18.30;16.40;;;15.10;99.90;;;;;;4853667;29;20627;-80
2021/10/09 10:57:34;;;;;;;19.10;16.17;;;15.00;99.90;;;;;;4841383;29;20229;-81
2021/10/09 11:00:15;;;;;;;17.83;16.07;;;15.00;99.90;;;;;;4801665;29;20294;-80
2021/10/09 11:02:47;;;;;;;17.87;16.10;;;15.10;99.90;;;;;;4802132;29;20423;-81
2021/10/09 11:05:15;;;;;;;13.53;10.63;;;15.10;99.90;;;;;;4823029;29;20302;-81
2021/10/09 11:07:44;;;;;;;12.90;11.10;;;15.10;99.90;;;;;;4840801;29;20291;-82
2021/10/09 11:10:13;;;;;;;14.83;13.23;;;15.20;99.90;;;;;;4844577;29;20281;-81
2021/10/09 11:12:42;;;;;;;19.50;17.60;;;15.20;99.90;;;;;;4840780;29;20191;-81
2021/10/09 11:15:15;;;;;;;12.23;10.93;;;15.20;99.90;;;;;;4841838;29;20202;-81
2021/10/09 11:17:43;;;;;;;15.00;12.73;;;15.20;99.90;;;;;;4860559;29;20236;-82
2021/10/09 11:20:11;;;;;;;14.63;10.17;;;15.20;99.90;;;;;;4839433;29;20305;-81
2021/10/09 11:22:40;;;;;;;13.33;10.27;;;15.30;99.90;;;;;;4850132;29;20226;-80
2021/10/09 11:25:08;;;;;;;16.20;13.33;;;15.30;99.90;;;;;;4839711;29;20626;-78
2021/10/09 11:27:37;;;;;;;11.43;9.43;;;15.20;99.90;;;;;;4835034;29;20235;-77
2021/10/09 11:30:09;;;;;;;14.47;12.67;;;15.20;99.90;;;;;;4842788;29;20288;-77
2021/10/09 11:32:38;;;;;;;13.17;9.43;;;15.20;99.90;;;;;;4844083;29;20203;-78
2021/10/09 11:35:06;;;;;;;12.93;11.13;;;15.20;99.90;;;;;;4856126;29;20239;-77
2021/10/09 11:37:34;;;;;;;15.33;10.73;;;15.20;99.90;;;;;;4856174;29;20224;-78
2021/10/09 11:40:03;;;;;;;12.97;10.90;;;15.20;99.90;;;;;;4854914;29;20202;-78
2021/10/09 11:42:33;;;;;;;11.67;10.37;;;15.20;99.90;;;;;;4849769;29;20236;-77
2021/10/09 11:45:11;;;;;;;18.07;10.93;;;15.30;99.90;;;;;;4838306;29;20214;-78
2021/10/09 11:56:00;;;;;;;20.10;13.43;;;15.30;99.90;;;;;;4871833;29;20242;-77
2021/10/09 11:58:29;;;;;;;19.07;12.30;;;15.30;99.90;;;;;;4853175;29;20285;-77
2021/10/09 12:00:57;;;;;;;16.77;11.30;;;15.30;99.90;;;;;;4855332;29;20646;-78
2021/10/09 12:03:33;;;;;;;16.43;10.73;;;15.30;99.90;;;;;;4841701;29;20215;-78
2021/10/09 12:06:06;;;;;;;15.03;12.30;;;15.30;99.90;;;;;;4853622;29;20194;-78
2021/10/09 12:08:40;;;;;;;10.03;8.47;;;15.30;99.90;;;;;;4851619;29;20202;-78
2021/10/09 12:11:13;;;;;;;13.30;11.80;;;15.30;99.90;;;;;;4914414;23;20250;-78
2021/10/09 12:13:48;;;;;;;11.40;6.50;;;15.40;99.90;;;;;;4898113;29;20204;-78
2021/10/09 12:16:17;;;;;;;11.33;10.33;;;15.40;99.90;;;;;;4895967;29;20721;-79
2021/10/09 12:18:54;;;;;;;12.27;11.17;;;15.50;99.90;;;;;;4901564;29;20201;-78
2021/10/09 12:21:23;;;;;;;12.87;11.57;;;15.50;99.90;;;;;;4914429;29;20228;-79
2021/10/09 12:23:51;;;;;;;12.33;11.33;;;15.50;99.90;;;;;;4902432;29;20261;-77
2021/10/09 12:26:19;;;;;;;13.07;11.70;;;15.50;99.90;;;;;;4902943;29;20562;-80
2021/10/09 12:29:19;;;;;;;13.30;12.00;;;15.60;99.90;;;;;;4900869;29;20214;-81
2021/10/09 12:31:48;;;;;;;13.73;12.47;;;15.60;99.90;;;;;;4843633;29;20206;-79
2021/10/09 12:34:33;;;;;;;12.53;11.43;;;15.60;99.90;;;;;;4841355;29;20208;-80
2021/10/09 12:37:10;;;;;;;12.93;11.63;;;15.60;99.90;;;;;;4865471;29;20266;-78
2021/10/09 12:39:37;;;;;;;13.00;11.80;;;15.70;99.90;;;;;;4897890;29;20221;-80
2021/10/09 12:42:04;;;;;;;12.93;11.23;;;15.70;99.90;;;;;;4900229;29;20227;-79
2021/10/09 12:44:31;;;;;;;13.20;12.10;;;15.70;99.90;;;;;;4901063;29;20731;-79
2021/10/09 12:46:59;;;;;;;12.23;11.23;;;15.70;99.90;;;;;;4899744;29;20201;-78
2021/10/09 12:49:26;;;;;;;13.27;12.07;;;15.70;99.90;;;;;;4900653;29;20574;-80
2021/10/09 12:51:53;;;;;;;12.53;11.37;;;15.70;99.90;;;;;;4901115;29;20284;-79
2021/10/09 12:54:20;;;;;;;13.00;11.53;;;15.70;99.90;;;;;;4900944;29;20566;-78
2021/10/09 12:56:49;;;;;;;13.30;12.00;;;15.80;99.90;;;;;;4902088;29;20206;-79
2021/10/09 12:59:17;;;;;;;13.67;12.37;;;15.80;99.90;;;;;;4903205;29;20281;-78
2021/10/09 13:01:44;;;;;;;13.13;11.77;;;15.90;99.90;;;;;;4912824;29;20235;-78
2021/10/09 13:04:12;;;;;;;9.83;7.80;;;16.00;99.90;;;;;;4920817;29;20209;-78
2021/10/09 13:06:39;;;;;;;10.63;6.97;;;16.00;99.90;;;;;;4921489;29;20208;-78
2021/10/09 13:09:06;;;;;;;12.47;9.27;;;15.90;99.90;;;;;;4904258;29;20677;-78
2021/10/09 13:11:42;;;;;;;9.63;7.03;;;15.80;99.90;;;;;;4902999;29;20224;-78
2021/10/09 13:14:09;;;;;;;10.13;8.43;;;15.90;99.90;;;;;;4919499;29;20212;-78
2021/10/09 13:16:36;;;;;;;8.13;6.90;;;15.80;99.90;;;;;;4904926;29;20260;-78
2021/10/09 13:19:03;;;;;;;9.77;8.87;;;15.90;99.90;;;;;;4903710;29;20205;-77
2021/10/09 13:21:31;;;;;;;9.50;8.53;;;15.80;99.90;;;;;;4901565;29;20277;-78
2021/10/09 13:23:59;;;;;;;12.13;11.03;;;15.80;99.90;;;;;;4897133;29;20239;-80
2021/10/09 13:26:28;;;;;;;16.27;11.80;;;15.90;99.90;;;;;;4901165;29;20202;-78
2021/10/09 13:28:59;;;;;;;12.93;11.73;;;15.80;99.90;;;;;;4912426;29;20296;-79
2021/10/09 13:31:31;;;;;;;10.00;6.57;;;15.80;99.90;;;;;;4902524;29;20232;-80
2021/10/09 13:33:58;;;;;;;10.50;6.80;;;15.90;99.90;;;;;;4901845;29;20558;-78
2021/10/09 13:36:25;;;;;;;9.27;8.47;;;16.00;99.90;;;;;;4904350;29;20197;-79
2021/10/09 13:38:54;;;;;;;11.47;10.50;;;16.00;99.90;;;;;;4909527;29;20691;-77
2021/10/09 13:41:21;;;;;;;13.60;11.60;;;15.90;99.90;;;;;;4904207;29;20599;-78
2021/10/09 13:43:48;;;;;;;11.80;10.80;;;15.90;99.90;;;;;;4896344;29;20682;-78
2021/10/09 13:46:16;;;;;;;11.70;10.80;;;16.00;99.90;;;;;;4898166;29;20215;-78
2021/10/09 13:48:43;;;;;;;11.93;11.00;;;16.10;99.90;;;;;;4897189;29;20641;-78
2021/10/09 13:51:13;;;;;;;11.93;10.83;;;16.10;99.90;;;;;;4897804;29;20252;-79
2021/10/09 13:53:40;;;;;;;12.43;11.33;;;16.10;99.90;;;;;;4898029;29;20612;-78
2021/10/09 13:56:08;;;;;;;12.77;11.57;;;16.10;99.90;;;;;;4895994;29;20295;-78
2021/10/09 13:58:35;;;;;;;12.33;11.10;;;16.00;99.90;;;;;;4894196;29;20266;-78
2021/10/09 14:01:02;;;;;;;12.43;10.80;;;16.00;99.90;;;;;;4897758;29;20226;-78
2021/10/09 14:03:30;;;;;;;11.87;10.77;;;16.00;99.90;;;;;;4897146;29;20295;-78
2021/10/09 14:05:58;;;;;;;14.10;10.97;;;16.00;99.90;;;;;;4895401;29;20210;-78
2021/10/09 14:08:25;;;;;;;11.90;10.80;;;16.00;99.90;;;;;;4895070;29;20217;-79
2021/10/09 14:10:52;;;;;;;12.03;10.93;;;16.00;99.90;;;;;;4903495;29;20309;-79
2021/10/09 14:13:21;;;;;;;13.33;11.77;;;16.00;99.90;;;;;;4904345;29;20206;-78
2021/10/09 14:15:48;;;;;;;11.67;10.63;;;16.00;99.90;;;;;;4899916;29;20667;-81
2021/10/09 14:18:16;;;;;;;11.30;10.20;;;16.10;99.90;;;;;;4899782;29;20231;-77
2021/10/09 14:20:43;;;;;;;11.90;10.90;;;16.00;99.90;;;;;;4896518;29;20233;-77
2021/10/09 14:23:10;;;;;;;13.70;10.70;;;16.00;99.90;;;;;;4895496;29;20277;-78
2021/10/09 14:25:37;;;;;;;11.57;10.63;;;16.00;99.90;;;;;;4903479;29;20311;-78